Clarkton, North Carolina
Current Conditions -  °F | °C
As of 12:35 PM on Wednesday 26 Nov 2014 (Local Time) from KEYF Reporting Station
Moderate Rain Moderate Rain  
Wind Chill: 45°   Ceiling: 4300
Heat Index: 49°   Visibility: 10mi
Dew Point: 47°   Wind: 8mph
Humidity: 92%   Direction: 310°NW
Pressure: 29.89"   Gusts: NA
Location:  34.49°N, 78.66°W
Report Text: KEYF 261735Z AUTO 31007KT 10SM RA SCT014 SCT033 OVC043 09/08 A2989 RMK AO2 T00940082
Loading
Personal Weather Stations






























Interactive Weather Map New forecast layout! Learn more

10-Day Weather Forecast

Advertisements
Track Severe Weather on mobile